Westchester, New York
Current Conditions -  °F | °C
As of 10:51 PM on Friday 28 Nov 2014 (Local Time) from KLGA Reporting Station
Few Clouds Few Clouds  
Wind Chill: 22°   Ceiling: Unl
Heat Index: 30°   Visibility: 10mi
Dew Point: 13°   Wind: 9mph
Humidity: 49%   Direction: 350°N
Pressure: 30.28"   Gusts: NA
Location:  40.8469°N, 73.8398°W
Report Text: KLGA 290351Z 35008KT 10SM FEW250 M01/M11 A3028 RMK AO2 SLP251 T10111106
Loading
Personal Weather Stations






























Interactive Weather Map New forecast layout! Learn more

10-Day Weather Forecast

Advertisements
Track Severe Weather on mobile